sensor_id;sensor_type;location;lat;lon;timestamp;P1;durP1;ratioP1;P2;durP2;ratioP2
29358;SDS011;16347;53.232;6.556;2023-10-09T00:00:06;9.15;;;3.90;;
29358;SDS011;16347;53.232;6.556;2023-10-09T00:05:28;9.35;;;3.63;;
29358;SDS011;16347;53.232;6.556;2023-10-09T00:08:06;7.90;;;3.58;;
29358;SDS011;16347;53.232;6.556;2023-10-09T00:10:37;10.32;;;3.70;;
29358;SDS011;16347;53.232;6.556;2023-10-09T00:13:15;13.95;;;4.10;;
29358;SDS011;16347;53.232;6.556;2023-10-09T00:15:44;12.73;;;3.95;;
29358;SDS011;16347;53.232;6.556;2023-10-09T00:18:18;12.32;;;4.35;;
29358;SDS011;16347;53.232;6.556;2023-10-09T00:20:55;12.23;;;4.00;;
29358;SDS011;16347;53.232;6.556;2023-10-09T00:23:27;12.05;;;4.20;;
29358;SDS011;16347;53.232;6.556;2023-10-09T00:25:59;9.65;;;4.13;;
29358;SDS011;16347;53.232;6.556;2023-10-09T00:28:43;12.90;;;4.35;;
29358;SDS011;16347;53.232;6.556;2023-10-09T00:31:13;10.30;;;4.50;;
29358;SDS011;16347;53.232;6.556;2023-10-09T00:33:42;10.30;;;4.43;;
29358;SDS011;16347;53.232;6.556;2023-10-09T00:36:10;11.20;;;4.35;;
29358;SDS011;16347;53.232;6.556;2023-10-09T00:38:44;11.57;;;5.35;;
29358;SDS011;16347;53.232;6.556;2023-10-09T00:41:15;9.63;;;4.85;;
29358;SDS011;16347;53.232;6.556;2023-10-09T00:43:46;9.48;;;4.43;;
29358;SDS011;16347;53.232;6.556;2023-10-09T00:46:16;17.35;;;5.40;;
29358;SDS011;16347;53.232;6.556;2023-10-09T00:48:52;13.57;;;5.40;;
29358;SDS011;16347;53.232;6.556;2023-10-09T00:51:22;13.32;;;5.32;;
29358;SDS011;16347;53.232;6.556;2023-10-09T00:53:53;11.63;;;5.50;;
29358;SDS011;16347;53.232;6.556;2023-10-09T00:56:25;16.73;;;5.82;;
29358;SDS011;16347;53.232;6.556;2023-10-09T00:59:04;18.67;;;6.85;;
29358;SDS011;16347;53.232;6.556;2023-10-09T01:01:41;19.38;;;6.97;;
29358;SDS011;16347;53.232;6.556;2023-10-09T01:04:23;19.60;;;5.95;;
29358;SDS011;16347;53.232;6.556;2023-10-09T01:06:52;19.45;;;6.68;;
29358;SDS011;16347;53.232;6.556;2023-10-09T01:09:35;19.20;;;7.13;;
29358;SDS011;16347;53.232;6.556;2023-10-09T01:12:06;13.90;;;6.60;;
29358;SDS011;16347;53.232;6.556;2023-10-09T01:14:43;18.48;;;7.35;;
29358;SDS011;16347;53.232;6.556;2023-10-09T01:17:11;27.58;;;7.35;;
29358;SDS011;16347;53.232;6.556;2023-10-09T01:19:39;17.33;;;7.18;;
29358;SDS011;16347;53.232;6.556;2023-10-09T01:22:09;20.52;;;7.85;;
29358;SDS011;16347;53.232;6.556;2023-10-09T01:24:42;18.33;;;6.90;;
29358;SDS011;16347;53.232;6.556;2023-10-09T01:27:10;22.48;;;8.23;;
29358;SDS011;16347;53.232;6.556;2023-10-09T01:29:42;24.60;;;8.10;;
29358;SDS011;16347;53.232;6.556;2023-10-09T01:32:13;26.13;;;9.45;;
29358;SDS011;16347;53.232;6.556;2023-10-09T01:34:45;25.58;;;9.18;;
29358;SDS011;16347;53.232;6.556;2023-10-09T01:37:16;23.50;;;9.57;;
29358;SDS011;16347;53.232;6.556;2023-10-09T01:42:19;34.78;;;11.25;;
29358;SDS011;16347;53.232;6.556;2023-10-09T01:44:54;32.75;;;11.43;;
29358;SDS011;16347;53.232;6.556;2023-10-09T01:47:22;31.55;;;11.02;;
29358;SDS011;16347;53.232;6.556;2023-10-09T01:49:52;25.88;;;10.82;;
29358;SDS011;16347;53.232;6.556;2023-10-09T01:52:21;26.55;;;11.18;;
29358;SDS011;16347;53.232;6.556;2023-10-09T01:54:52;29.67;;;12.15;;
29358;SDS011;16347;53.232;6.556;2023-10-09T01:57:27;26.83;;;10.73;;
29358;SDS011;16347;53.232;6.556;2023-10-09T01:59:56;33.92;;;12.90;;
29358;SDS011;16347;53.232;6.556;2023-10-09T02:02:25;34.08;;;12.50;;
29358;SDS011;16347;53.232;6.556;2023-10-09T02:04:58;34.75;;;12.30;;
29358;SDS011;16347;53.232;6.556;2023-10-09T02:07:35;33.17;;;12.35;;
29358;SDS011;16347;53.232;6.556;2023-10-09T02:10:13;36.83;;;13.50;;
29358;SDS011;16347;53.232;6.556;2023-10-09T02:12:52;34.10;;;13.18;;
29358;SDS011;16347;53.232;6.556;2023-10-09T02:15:24;42.58;;;15.20;;
29358;SDS011;16347;53.232;6.556;2023-10-09T02:18:19;39.38;;;14.90;;
29358;SDS011;16347;53.232;6.556;2023-10-09T02:21:05;36.95;;;14.52;;
29358;SDS011;16347;53.232;6.556;2023-10-09T02:23:40;28.95;;;13.60;;
29358;SDS011;16347;53.232;6.556;2023-10-09T02:26:13;43.33;;;14.95;;
29358;SDS011;16347;53.232;6.556;2023-10-09T02:28:46;37.55;;;14.00;;
29358;SDS011;16347;53.232;6.556;2023-10-09T02:33:51;34.10;;;14.35;;
29358;SDS011;16347;53.232;6.556;2023-10-09T02:36:21;41.92;;;15.73;;
29358;SDS011;16347;53.232;6.556;2023-10-09T02:38:49;34.50;;;15.52;;
29358;SDS011;16347;53.232;6.556;2023-10-09T02:41:19;36.53;;;15.52;;
29358;SDS011;16347;53.232;6.556;2023-10-09T02:43:54;45.65;;;15.80;;
29358;SDS011;16347;53.232;6.556;2023-10-09T02:46:23;39.45;;;16.27;;
29358;SDS011;16347;53.232;6.556;2023-10-09T02:48:58;37.90;;;16.25;;
29358;SDS011;16347;53.232;6.556;2023-10-09T02:51:30;39.63;;;17.58;;
29358;SDS011;16347;53.232;6.556;2023-10-09T02:53:59;37.75;;;16.67;;
29358;SDS011;16347;53.232;6.556;2023-10-09T02:56:35;42.53;;;17.23;;
29358;SDS011;16347;53.232;6.556;2023-10-09T02:59:09;42.53;;;18.50;;
29358;SDS011;16347;53.232;6.556;2023-10-09T03:01:38;47.33;;;19.70;;
29358;SDS011;16347;53.232;6.556;2023-10-09T03:04:09;49.25;;;20.25;;
29358;SDS011;16347;53.232;6.556;2023-10-09T03:06:40;46.17;;;19.65;;
29358;SDS011;16347;53.232;6.556;2023-10-09T03:09:16;41.45;;;18.58;;
29358;SDS011;16347;53.232;6.556;2023-10-09T03:11:45;53.83;;;21.40;;
29358;SDS011;16347;53.232;6.556;2023-10-09T03:14:14;46.80;;;20.13;;
29358;SDS011;16347;53.232;6.556;2023-10-09T03:16:43;51.03;;;20.25;;
29358;SDS011;16347;53.232;6.556;2023-10-09T03:19:12;47.53;;;20.67;;
29358;SDS011;16347;53.232;6.556;2023-10-09T03:21:40;50.95;;;20.55;;
29358;SDS011;16347;53.232;6.556;2023-10-09T03:24:09;45.65;;;20.25;;
29358;SDS011;16347;53.232;6.556;2023-10-09T03:26:38;49.35;;;21.65;;
29358;SDS011;16347;53.232;6.556;2023-10-09T03:29:06;54.58;;;21.50;;
29358;SDS011;16347;53.232;6.556;2023-10-09T03:31:36;55.25;;;23.13;;
29358;SDS011;16347;53.232;6.556;2023-10-09T03:34:05;57.17;;;24.33;;
29358;SDS011;16347;53.232;6.556;2023-10-09T03:36:36;57.70;;;22.13;;
29358;SDS011;16347;53.232;6.556;2023-10-09T03:39:05;50.40;;;23.30;;
29358;SDS011;16347;53.232;6.556;2023-10-09T03:41:51;61.58;;;23.73;;
29358;SDS011;16347;53.232;6.556;2023-10-09T03:44:20;49.22;;;23.58;;
29358;SDS011;16347;53.232;6.556;2023-10-09T03:46:48;62.33;;;25.63;;
29358;SDS011;16347;53.232;6.556;2023-10-09T03:49:18;58.78;;;24.30;;
29358;SDS011;16347;53.232;6.556;2023-10-09T03:51:52;62.00;;;26.40;;
29358;SDS011;16347;53.232;6.556;2023-10-09T03:54:21;59.17;;;25.20;;
29358;SDS011;16347;53.232;6.556;2023-10-09T03:56:51;63.15;;;25.88;;
29358;SDS011;16347;53.232;6.556;2023-10-09T03:59:21;50.08;;;24.48;;
29358;SDS011;16347;53.232;6.556;2023-10-09T04:01:49;56.53;;;25.88;;
29358;SDS011;16347;53.232;6.556;2023-10-09T04:04:19;50.33;;;23.88;;
29358;SDS011;16347;53.232;6.556;2023-10-09T04:06:51;63.30;;;23.13;;
29358;SDS011;16347;53.232;6.556;2023-10-09T04:09:19;53.28;;;23.20;;
29358;SDS011;16347;53.232;6.556;2023-10-09T04:12:06;55.08;;;22.75;;
29358;SDS011;16347;53.232;6.556;2023-10-09T04:14:47;48.45;;;21.70;;
29358;SDS011;16347;53.232;6.556;2023-10-09T04:17:17;58.75;;;22.60;;
29358;SDS011;16347;53.232;6.556;2023-10-09T04:20:01;48.45;;;19.67;;
29358;SDS011;16347;53.232;6.556;2023-10-09T04:22:49;48.50;;;21.23;;
29358;SDS011;16347;53.232;6.556;2023-10-09T04:25:18;47.45;;;20.17;;
29358;SDS011;16347;53.232;6.556;2023-10-09T04:27:53;44.33;;;20.70;;
29358;SDS011;16347;53.232;6.556;2023-10-09T04:30:26;48.53;;;20.20;;
29358;SDS011;16347;53.232;6.556;2023-10-09T04:32:54;49.40;;;20.02;;
29358;SDS011;16347;53.232;6.556;2023-10-09T04:35:29;51.17;;;20.77;;
29358;SDS011;16347;53.232;6.556;2023-10-09T04:38:00;48.97;;;20.17;;
29358;SDS011;16347;53.232;6.556;2023-10-09T04:40:32;46.22;;;21.02;;
29358;SDS011;16347;53.232;6.556;2023-10-09T04:43:15;41.60;;;19.83;;
29358;SDS011;16347;53.232;6.556;2023-10-09T04:45:47;46.28;;;20.05;;
29358;SDS011;16347;53.232;6.556;2023-10-09T04:48:33;44.03;;;19.63;;
29358;SDS011;16347;53.232;6.556;2023-10-09T04:51:05;45.17;;;20.13;;
29358;SDS011;16347;53.232;6.556;2023-10-09T04:54:02;41.83;;;18.98;;
29358;SDS011;16347;53.232;6.556;2023-10-09T04:56:39;55.67;;;21.08;;
29358;SDS011;16347;53.232;6.556;2023-10-09T04:59:19;44.83;;;18.40;;
29358;SDS011;16347;53.232;6.556;2023-10-09T05:01:51;45.65;;;19.52;;
29358;SDS011;16347;53.232;6.556;2023-10-09T05:04:25;44.42;;;19.65;;
29358;SDS011;16347;53.232;6.556;2023-10-09T05:07:07;50.38;;;18.90;;
29358;SDS011;16347;53.232;6.556;2023-10-09T05:10:00;44.53;;;17.75;;
29358;SDS011;16347;53.232;6.556;2023-10-09T05:12:41;44.05;;;17.23;;
29358;SDS011;16347;53.232;6.556;2023-10-09T05:15:13;43.10;;;17.50;;
29358;SDS011;16347;53.232;6.556;2023-10-09T05:17:42;49.53;;;17.67;;
29358;SDS011;16347;53.232;6.556;2023-10-09T05:20:18;34.38;;;16.80;;
29358;SDS011;16347;53.232;6.556;2023-10-09T05:23:04;38.25;;;16.67;;
29358;SDS011;16347;53.232;6.556;2023-10-09T05:25:51;39.28;;;16.05;;
29358;SDS011;16347;53.232;6.556;2023-10-09T05:28:25;44.35;;;16.98;;
29358;SDS011;16347;53.232;6.556;2023-10-09T05:30:58;43.72;;;15.93;;
29358;SDS011;16347;53.232;6.556;2023-10-09T05:33:35;38.50;;;14.77;;
29358;SDS011;16347;53.232;6.556;2023-10-09T05:36:04;33.05;;;15.27;;
29358;SDS011;16347;53.232;6.556;2023-10-09T05:38:44;36.35;;;14.88;;
29358;SDS011;16347;53.232;6.556;2023-10-09T05:41:26;34.20;;;13.73;;
29358;SDS011;16347;53.232;6.556;2023-10-09T05:44:14;32.22;;;13.68;;
29358;SDS011;16347;53.232;6.556;2023-10-09T05:47:00;41.83;;;13.35;;
29358;SDS011;16347;53.232;6.556;2023-10-09T05:49:45;33.67;;;12.18;;
29358;SDS011;16347;53.232;6.556;2023-10-09T05:52:13;30.80;;;12.85;;
29358;SDS011;16347;53.232;6.556;2023-10-09T05:54:59;40.95;;;12.35;;
29358;SDS011;16347;53.232;6.556;2023-10-09T05:57:45;40.95;;;11.77;;
29358;SDS011;16347;53.232;6.556;2023-10-09T06:00:33;27.67;;;12.05;;
29358;SDS011;16347;53.232;6.556;2023-10-09T06:03:15;30.95;;;11.15;;
29358;SDS011;16347;53.232;6.556;2023-10-09T06:05:59;32.22;;;11.40;;
29358;SDS011;16347;53.232;6.556;2023-10-09T06:08:31;28.15;;;10.95;;
29358;SDS011;16347;53.232;6.556;2023-10-09T06:11:34;29.40;;;10.80;;
29358;SDS011;16347;53.232;6.556;2023-10-09T06:14:06;38.25;;;10.60;;
29358;SDS011;16347;53.232;6.556;2023-10-09T06:16:40;26.60;;;10.88;;
29358;SDS011;16347;53.232;6.556;2023-10-09T06:19:09;39.38;;;11.15;;
29358;SDS011;16347;53.232;6.556;2023-10-09T06:21:53;35.55;;;11.15;;
29358;SDS011;16347;53.232;6.556;2023-10-09T06:24:39;29.83;;;9.82;;
29358;SDS011;16347;53.232;6.556;2023-10-09T06:27:09;28.48;;;10.23;;
29358;SDS011;16347;53.232;6.556;2023-10-09T06:29:42;31.05;;;10.18;;
29358;SDS011;16347;53.232;6.556;2023-10-09T06:32:38;27.90;;;8.85;;
29358;SDS011;16347;53.232;6.556;2023-10-09T06:35:17;28.42;;;9.30;;
29358;SDS011;16347;53.232;6.556;2023-10-09T06:37:45;29.17;;;9.90;;
29358;SDS011;16347;53.232;6.556;2023-10-09T06:40:33;29.40;;;9.40;;
29358;SDS011;16347;53.232;6.556;2023-10-09T06:43:19;30.98;;;9.55;;
29358;SDS011;16347;53.232;6.556;2023-10-09T06:45:56;28.33;;;9.73;;
29358;SDS011;16347;53.232;6.556;2023-10-09T06:48:45;21.77;;;8.80;;
29358;SDS011;16347;53.232;6.556;2023-10-09T06:51:21;25.88;;;8.93;;
29358;SDS011;16347;53.232;6.556;2023-10-09T06:54:18;32.50;;;9.23;;
29358;SDS011;16347;53.232;6.556;2023-10-09T06:56:46;32.10;;;10.43;;
29358;SDS011;16347;53.232;6.556;2023-10-09T06:59:31;32.15;;;9.73;;
29358;SDS011;16347;53.232;6.556;2023-10-09T07:02:29;25.40;;;9.95;;
29358;SDS011;16347;53.232;6.556;2023-10-09T07:05:02;34.95;;;10.50;;
29358;SDS011;16347;53.232;6.556;2023-10-09T07:07:39;27.48;;;9.45;;
29358;SDS011;16347;53.232;6.556;2023-10-09T07:10:18;30.85;;;9.43;;
29358;SDS011;16347;53.232;6.556;2023-10-09T07:13:03;26.17;;;9.60;;
29358;SDS011;16347;53.232;6.556;2023-10-09T07:15:33;34.28;;;9.90;;
29358;SDS011;16347;53.232;6.556;2023-10-09T07:18:19;28.33;;;9.38;;
29358;SDS011;16347;53.232;6.556;2023-10-09T07:20:50;33.47;;;9.63;;
29358;SDS011;16347;53.232;6.556;2023-10-09T07:23:28;27.10;;;9.63;;
29358;SDS011;16347;53.232;6.556;2023-10-09T07:26:05;27.17;;;8.93;;
29358;SDS011;16347;53.232;6.556;2023-10-09T07:28:50;29.77;;;9.38;;
29358;SDS011;16347;53.232;6.556;2023-10-09T07:31:27;26.55;;;9.18;;
29358;SDS011;16347;53.232;6.556;2023-10-09T07:34:07;39.90;;;10.05;;
29358;SDS011;16347;53.232;6.556;2023-10-09T07:36:48;30.80;;;8.52;;
29358;SDS011;16347;53.232;6.556;2023-10-09T07:39:23;31.27;;;9.02;;
29358;SDS011;16347;53.232;6.556;2023-10-09T07:42:03;30.23;;;9.10;;
29358;SDS011;16347;53.232;6.556;2023-10-09T07:44:47;33.80;;;9.75;;
29358;SDS011;16347;53.232;6.556;2023-10-09T07:47:20;28.88;;;10.05;;
29358;SDS011;16347;53.232;6.556;2023-10-09T07:49:59;32.13;;;8.98;;
29358;SDS011;16347;53.232;6.556;2023-10-09T07:52:30;26.10;;;9.73;;
29358;SDS011;16347;53.232;6.556;2023-10-09T07:54:58;29.98;;;9.50;;
29358;SDS011;16347;53.232;6.556;2023-10-09T07:57:53;32.20;;;10.10;;
29358;SDS011;16347;53.232;6.556;2023-10-09T08:00:21;28.17;;;10.07;;
29358;SDS011;16347;53.232;6.556;2023-10-09T08:03:24;30.70;;;9.18;;
29358;SDS011;16347;53.232;6.556;2023-10-09T08:05:59;32.35;;;9.40;;
29358;SDS011;16347;53.232;6.556;2023-10-09T08:08:33;29.65;;;8.90;;
29358;SDS011;16347;53.232;6.556;2023-10-09T08:11:27;30.95;;;9.30;;
29358;SDS011;16347;53.232;6.556;2023-10-09T08:14:27;25.35;;;8.52;;
29358;SDS011;16347;53.232;6.556;2023-10-09T08:17:09;25.83;;;9.70;;
29358;SDS011;16347;53.232;6.556;2023-10-09T08:19:47;28.15;;;9.60;;
29358;SDS011;16347;53.232;6.556;2023-10-09T08:22:29;29.63;;;8.97;;
29358;SDS011;16347;53.232;6.556;2023-10-09T08:25:18;30.30;;;9.52;;
29358;SDS011;16347;53.232;6.556;2023-10-09T08:27:59;35.38;;;9.52;;
29358;SDS011;16347;53.232;6.556;2023-10-09T08:30:43;27.05;;;9.52;;
29358;SDS011;16347;53.232;6.556;2023-10-09T08:33:17;31.33;;;9.45;;
29358;SDS011;16347;53.232;6.556;2023-10-09T08:36:22;30.50;;;10.10;;
29358;SDS011;16347;53.232;6.556;2023-10-09T08:38:55;32.80;;;9.70;;
29358;SDS011;16347;53.232;6.556;2023-10-09T08:41:24;31.90;;;9.25;;
29358;SDS011;16347;53.232;6.556;2023-10-09T08:43:57;24.80;;;8.45;;
29358;SDS011;16347;53.232;6.556;2023-10-09T08:46:27;26.58;;;8.70;;
29358;SDS011;16347;53.232;6.556;2023-10-09T08:48:56;33.33;;;9.13;;
29358;SDS011;16347;53.232;6.556;2023-10-09T08:51:26;29.60;;;9.18;;
29358;SDS011;16347;53.232;6.556;2023-10-09T08:53:55;40.50;;;9.93;;
29358;SDS011;16347;53.232;6.556;2023-10-09T08:56:24;23.27;;;8.32;;
29358;SDS011;16347;53.232;6.556;2023-10-09T08:58:52;28.45;;;8.00;;
29358;SDS011;16347;53.232;6.556;2023-10-09T09:01:22;32.78;;;9.60;;
29358;SDS011;16347;53.232;6.556;2023-10-09T09:03:53;39.80;;;9.57;;
29358;SDS011;16347;53.232;6.556;2023-10-09T09:06:23;29.05;;;8.85;;
29358;SDS011;16347;53.232;6.556;2023-10-09T09:08:51;26.13;;;8.27;;
29358;SDS011;16347;53.232;6.556;2023-10-09T09:11:21;34.35;;;9.18;;
29358;SDS011;16347;53.232;6.556;2023-10-09T09:13:59;23.23;;;8.20;;
29358;SDS011;16347;53.232;6.556;2023-10-09T09:16:32;26.67;;;8.60;;
29358;SDS011;16347;53.232;6.556;2023-10-09T09:19:07;27.17;;;8.80;;
29358;SDS011;16347;53.232;6.556;2023-10-09T09:21:48;27.33;;;9.07;;
29358;SDS011;16347;53.232;6.556;2023-10-09T09:24:21;25.17;;;7.93;;
29358;SDS011;16347;53.232;6.556;2023-10-09T09:27:00;27.30;;;8.32;;
29358;SDS011;16347;53.232;6.556;2023-10-09T09:29:40;23.92;;;8.65;;
29358;SDS011;16347;53.232;6.556;2023-10-09T09:32:28;28.77;;;8.68;;
29358;SDS011;16347;53.232;6.556;2023-10-09T09:37:51;25.40;;;8.23;;
29358;SDS011;16347;53.232;6.556;2023-10-09T09:40:21;25.85;;;8.48;;
29358;SDS011;16347;53.232;6.556;2023-10-09T09:43:00;21.63;;;7.28;;
29358;SDS011;16347;53.232;6.556;2023-10-09T09:45:33;26.97;;;8.17;;
29358;SDS011;16347;53.232;6.556;2023-10-09T09:48:03;28.10;;;9.10;;
29358;SDS011;16347;53.232;6.556;2023-10-09T09:50:35;23.42;;;8.35;;
29358;SDS011;16347;53.232;6.556;2023-10-09T09:53:10;26.42;;;8.40;;
29358;SDS011;16347;53.232;6.556;2023-10-09T09:55:44;25.10;;;7.97;;
29358;SDS011;16347;53.232;6.556;2023-10-09T09:58:18;23.67;;;8.27;;
29358;SDS011;16347;53.232;6.556;2023-10-09T10:00:50;27.02;;;7.65;;
29358;SDS011;16347;53.232;6.556;2023-10-09T10:03:22;24.95;;;7.47;;
29358;SDS011;16347;53.232;6.556;2023-10-09T10:05:55;23.80;;;7.63;;
29358;SDS011;16347;53.232;6.556;2023-10-09T10:08:24;28.25;;;7.70;;
29358;SDS011;16347;53.232;6.556;2023-10-09T10:10:58;23.77;;;7.03;;
29358;SDS011;16347;53.232;6.556;2023-10-09T10:16:25;19.45;;;6.93;;
29358;SDS011;16347;53.232;6.556;2023-10-09T10:19:02;27.40;;;7.00;;
29358;SDS011;16347;53.232;6.556;2023-10-09T10:21:50;23.35;;;6.80;;
29358;SDS011;16347;53.232;6.556;2023-10-09T10:27:21;24.42;;;6.82;;
29358;SDS011;16347;53.232;6.556;2023-10-09T10:33:03;28.88;;;7.00;;
29358;SDS011;16347;53.232;6.556;2023-10-09T10:35:39;27.15;;;6.82;;
29358;SDS011;16347;53.232;6.556;2023-10-09T10:38:26;27.30;;;6.63;;
29358;SDS011;16347;53.232;6.556;2023-10-09T10:41:13;23.27;;;7.32;;
29358;SDS011;16347;53.232;6.556;2023-10-09T10:43:44;29.60;;;8.88;;
29358;SDS011;16347;53.232;6.556;2023-10-09T10:46:21;28.60;;;7.15;;
29358;SDS011;16347;53.232;6.556;2023-10-09T10:49:05;27.80;;;6.95;;
29358;SDS011;16347;53.232;6.556;2023-10-09T10:51:47;21.67;;;6.30;;
29358;SDS011;16347;53.232;6.556;2023-10-09T10:54:24;21.08;;;6.47;;
29358;SDS011;16347;53.232;6.556;2023-10-09T10:57:19;32.58;;;7.03;;
29358;SDS011;16347;53.232;6.556;2023-10-09T10:59:56;24.92;;;6.10;;
29358;SDS011;16347;53.232;6.556;2023-10-09T11:03:00;28.52;;;7.57;;
29358;SDS011;16347;53.232;6.556;2023-10-09T11:05:41;22.60;;;6.53;;
29358;SDS011;16347;53.232;6.556;2023-10-09T11:08:10;19.67;;;6.13;;
29358;SDS011;16347;53.232;6.556;2023-10-09T11:10:39;25.10;;;7.00;;
29358;SDS011;16347;53.232;6.556;2023-10-09T11:13:26;21.63;;;6.10;;
29358;SDS011;16347;53.232;6.556;2023-10-09T11:16:01;28.05;;;6.60;;
29358;SDS011;16347;53.232;6.556;2023-10-09T11:21:31;20.40;;;5.80;;
29358;SDS011;16347;53.232;6.556;2023-10-09T11:24:07;24.00;;;5.32;;
29358;SDS011;16347;53.232;6.556;2023-10-09T11:26:58;22.25;;;5.35;;
29358;SDS011;16347;53.232;6.556;2023-10-09T11:29:32;26.48;;;6.43;;
29358;SDS011;16347;53.232;6.556;2023-10-09T11:32:14;26.42;;;5.82;;
29358;SDS011;16347;53.232;6.556;2023-10-09T11:34:45;21.52;;;5.75;;
29358;SDS011;16347;53.232;6.556;2023-10-09T11:37:19;31.05;;;6.15;;
29358;SDS011;16347;53.232;6.556;2023-10-09T11:43:00;25.92;;;5.53;;
29358;SDS011;16347;53.232;6.556;2023-10-09T11:48:15;20.35;;;5.10;;
29358;SDS011;16347;53.232;6.556;2023-10-09T11:50:48;18.38;;;5.25;;
29358;SDS011;16347;53.232;6.556;2023-10-09T11:53:19;24.33;;;5.25;;
29358;SDS011;16347;53.232;6.556;2023-10-09T11:56:02;21.40;;;4.97;;
29358;SDS011;16347;53.232;6.556;2023-10-09T11:58:32;21.40;;;4.47;;
29358;SDS011;16347;53.232;6.556;2023-10-09T12:01:09;13.52;;;3.92;;
29358;SDS011;16347;53.232;6.556;2023-10-09T12:03:42;20.02;;;5.60;;
29358;SDS011;16347;53.232;6.556;2023-10-09T12:06:16;19.08;;;4.68;;
29358;SDS011;16347;53.232;6.556;2023-10-09T12:08:45;18.52;;;4.70;;
29358;SDS011;16347;53.232;6.556;2023-10-09T12:11:14;17.88;;;4.28;;
29358;SDS011;16347;53.232;6.556;2023-10-09T12:13:51;19.60;;;4.82;;
29358;SDS011;16347;53.232;6.556;2023-10-09T12:16:23;17.57;;;4.33;;
29358;SDS011;16347;53.232;6.556;2023-10-09T12:18:55;20.13;;;4.53;;
29358;SDS011;16347;53.232;6.556;2023-10-09T12:21:23;16.67;;;4.65;;
29358;SDS011;16347;53.232;6.556;2023-10-09T12:23:54;19.10;;;4.68;;
29358;SDS011;16347;53.232;6.556;2023-10-09T12:26:26;24.45;;;4.60;;
29358;SDS011;16347;53.232;6.556;2023-10-09T12:28:55;14.43;;;4.25;;
29358;SDS011;16347;53.232;6.556;2023-10-09T12:31:24;19.48;;;4.57;;
29358;SDS011;16347;53.232;6.556;2023-10-09T12:33:52;18.13;;;4.80;;
29358;SDS011;16347;53.232;6.556;2023-10-09T12:36:20;24.17;;;4.43;;
29358;SDS011;16347;53.232;6.556;2023-10-09T12:38:48;14.80;;;4.22;;
29358;SDS011;16347;53.232;6.556;2023-10-09T12:41:20;17.80;;;4.30;;
29358;SDS011;16347;53.232;6.556;2023-10-09T12:43:52;13.77;;;4.57;;
29358;SDS011;16347;53.232;6.556;2023-10-09T12:46:22;14.63;;;4.22;;
29358;SDS011;16347;53.232;6.556;2023-10-09T12:48:52;13.93;;;4.47;;
29358;SDS011;16347;53.232;6.556;2023-10-09T12:51:21;18.33;;;4.05;;
29358;SDS011;16347;53.232;6.556;2023-10-09T12:53:56;18.08;;;4.55;;
29358;SDS011;16347;53.232;6.556;2023-10-09T12:56:24;27.30;;;4.07;;
29358;SDS011;16347;53.232;6.556;2023-10-09T12:58:59;26.17;;;5.18;;
29358;SDS011;16347;53.232;6.556;2023-10-09T13:01:29;12.75;;;3.85;;
29358;SDS011;16347;53.232;6.556;2023-10-09T13:03:58;14.82;;;3.85;;
29358;SDS011;16347;53.232;6.556;2023-10-09T13:06:27;12.95;;;3.90;;
29358;SDS011;16347;53.232;6.556;2023-10-09T13:08:55;15.23;;;4.57;;
29358;SDS011;16347;53.232;6.556;2023-10-09T13:11:26;16.33;;;3.88;;
29358;SDS011;16347;53.232;6.556;2023-10-09T13:13:54;18.48;;;4.88;;
29358;SDS011;16347;53.232;6.556;2023-10-09T13:16:25;17.42;;;3.75;;
29358;SDS011;16347;53.232;6.556;2023-10-09T13:18:56;15.60;;;4.32;;
29358;SDS011;16347;53.232;6.556;2023-10-09T13:21:26;12.32;;;3.90;;
29358;SDS011;16347;53.232;6.556;2023-10-09T13:23:58;18.17;;;4.13;;
29358;SDS011;16347;53.232;6.556;2023-10-09T13:26:28;16.00;;;4.43;;
29358;SDS011;16347;53.232;6.556;2023-10-09T13:29:00;12.52;;;3.78;;
29358;SDS011;16347;53.232;6.556;2023-10-09T13:31:29;18.15;;;4.20;;
29358;SDS011;16347;53.232;6.556;2023-10-09T13:34:03;13.50;;;4.00;;
29358;SDS011;16347;53.232;6.556;2023-10-09T13:36:33;14.05;;;4.28;;
29358;SDS011;16347;53.232;6.556;2023-10-09T13:39:02;16.30;;;3.88;;
29358;SDS011;16347;53.232;6.556;2023-10-09T13:41:49;13.63;;;3.97;;
29358;SDS011;16347;53.232;6.556;2023-10-09T13:44:19;16.88;;;3.75;;
29358;SDS011;16347;53.232;6.556;2023-10-09T13:46:47;14.27;;;3.47;;
29358;SDS011;16347;53.232;6.556;2023-10-09T13:49:18;31.15;;;4.20;;
29358;SDS011;16347;53.232;6.556;2023-10-09T13:51:49;16.80;;;3.47;;
29358;SDS011;16347;53.232;6.556;2023-10-09T13:54:17;17.67;;;4.15;;
29358;SDS011;16347;53.232;6.556;2023-10-09T13:56:54;13.07;;;3.13;;
29358;SDS011;16347;53.232;6.556;2023-10-09T13:59:23;13.82;;;4.00;;
29358;SDS011;16347;53.232;6.556;2023-10-09T14:01:52;18.30;;;3.42;;
29358;SDS011;16347;53.232;6.556;2023-10-09T14:04:23;12.38;;;3.50;;
29358;SDS011;16347;53.232;6.556;2023-10-09T14:06:51;13.45;;;3.55;;
29358;SDS011;16347;53.232;6.556;2023-10-09T14:09:23;9.98;;;2.90;;
29358;SDS011;16347;53.232;6.556;2023-10-09T14:11:58;14.77;;;2.75;;
29358;SDS011;16347;53.232;6.556;2023-10-09T14:14:34;10.82;;;2.50;;
29358;SDS011;16347;53.232;6.556;2023-10-09T14:17:05;18.52;;;2.97;;
29358;SDS011;16347;53.232;6.556;2023-10-09T14:22:14;11.75;;;2.55;;
29358;SDS011;16347;53.232;6.556;2023-10-09T14:24:43;13.93;;;2.70;;
29358;SDS011;16347;53.232;6.556;2023-10-09T14:27:12;14.57;;;2.70;;
29358;SDS011;16347;53.232;6.556;2023-10-09T14:29:44;15.07;;;3.35;;
29358;SDS011;16347;53.232;6.556;2023-10-09T14:32:12;12.30;;;2.80;;
29358;SDS011;16347;53.232;6.556;2023-10-09T14:34:42;13.82;;;3.40;;
29358;SDS011;16347;53.232;6.556;2023-10-09T14:37:16;11.48;;;3.00;;
29358;SDS011;16347;53.232;6.556;2023-10-09T14:39:45;9.52;;;2.85;;
29358;SDS011;16347;53.232;6.556;2023-10-09T14:42:15;9.82;;;2.63;;
29358;SDS011;16347;53.232;6.556;2023-10-09T14:44:43;14.38;;;2.50;;
29358;SDS011;16347;53.232;6.556;2023-10-09T14:47:12;16.85;;;3.03;;
29358;SDS011;16347;53.232;6.556;2023-10-09T14:49:42;14.13;;;3.00;;
29358;SDS011;16347;53.232;6.556;2023-10-09T14:52:13;13.98;;;2.33;;
29358;SDS011;16347;53.232;6.556;2023-10-09T14:54:45;14.15;;;2.15;;
29358;SDS011;16347;53.232;6.556;2023-10-09T14:57:14;21.85;;;2.80;;
29358;SDS011;16347;53.232;6.556;2023-10-09T14:59:42;12.15;;;2.15;;
29358;SDS011;16347;53.232;6.556;2023-10-09T15:02:10;18.35;;;2.88;;
29358;SDS011;16347;53.232;6.556;2023-10-09T15:04:39;15.40;;;2.63;;
29358;SDS011;16347;53.232;6.556;2023-10-09T15:07:08;14.85;;;2.10;;
29358;SDS011;16347;53.232;6.556;2023-10-09T15:09:38;10.40;;;2.40;;
29358;SDS011;16347;53.232;6.556;2023-10-09T15:12:07;17.25;;;3.40;;
29358;SDS011;16347;53.232;6.556;2023-10-09T15:14:35;11.57;;;2.28;;
29358;SDS011;16347;53.232;6.556;2023-10-09T15:17:03;13.65;;;2.83;;
29358;SDS011;16347;53.232;6.556;2023-10-09T15:19:33;12.77;;;2.42;;
29358;SDS011;16347;53.232;6.556;2023-10-09T15:22:01;7.15;;;2.13;;
29358;SDS011;16347;53.232;6.556;2023-10-09T15:24:36;14.07;;;2.80;;
29358;SDS011;16347;53.232;6.556;2023-10-09T15:27:04;15.13;;;2.63;;
29358;SDS011;16347;53.232;6.556;2023-10-09T15:29:32;14.32;;;2.75;;
29358;SDS011;16347;53.232;6.556;2023-10-09T15:32:03;10.25;;;2.03;;
29358;SDS011;16347;53.232;6.556;2023-10-09T15:34:41;12.75;;;2.35;;
29358;SDS011;16347;53.232;6.556;2023-10-09T15:37:10;9.88;;;2.05;;
29358;SDS011;16347;53.232;6.556;2023-10-09T15:39:41;12.38;;;2.08;;
29358;SDS011;16347;53.232;6.556;2023-10-09T15:42:09;12.07;;;2.08;;
29358;SDS011;16347;53.232;6.556;2023-10-09T15:44:40;12.43;;;1.70;;